Time;durP1;ratioP1;P1;durP2;ratioP2;P2;SDS_P1;SDS_P2;PMS_P1;PMS_P2;Temp;Humidity;BMP_temperature;BMP_pressure;BME280_temperature;BME280_humidity;BME280_pressure;Samples;Min_cycle;Max_cycle;Signal;HPM_P1;HPM_P2
2022/07/14 00:01:13;;;;;;;4.17;1.90;;;;;;;19.62;54.34;100307.78;123610;1099;104275;-75
2022/07/14 00:03:46;;;;;;;2.60;1.77;;;;;;;19.67;53.91;100305.98;123630;1099;104370;-76
2022/07/14 00:06:18;;;;;;;5.73;1.90;;;;;;;19.70;54.06;100311.28;123653;1099;104418;-76
2022/07/14 00:08:49;;;;;;;2.97;1.80;;;;;;;19.71;53.82;100305.08;123570;1099;104373;-76
2022/07/14 00:11:21;;;;;;;4.77;2.30;;;;;;;19.74;53.61;100296.17;123601;1099;104344;-76
2022/07/14 00:13:56;;;;;;;4.20;1.93;;;;;;;19.74;53.75;100307.73;123577;1099;104248;-76
2022/07/14 00:16:27;;;;;;;4.37;2.10;;;;;;;19.75;54.14;100304.16;123586;1099;104245;-76
2022/07/14 00:19:01;;;;;;;4.27;2.10;;;;;;;19.77;54.14;100308.63;123678;1099;104373;-76
2022/07/14 00:21:33;;;;;;;3.05;1.92;;;;;;;19.75;53.87;100304.16;123550;1098;104392;-76
2022/07/14 00:24:05;;;;;;;5.50;1.97;;;;;;;19.80;53.32;100305.95;123606;1099;104383;-76
2022/07/14 00:26:36;;;;;;;3.43;1.60;;;;;;;19.80;53.80;100305.95;123621;1099;104325;-76
2022/07/14 00:29:08;;;;;;;2.35;1.75;;;;;;;19.81;53.78;100308.61;123588;1098;104249;-75
2022/07/14 00:31:40;;;;;;;3.53;2.10;;;;;;;19.82;53.23;100301.49;123578;1099;104418;-77
2022/07/14 00:34:12;;;;;;;1.77;1.67;;;;;;;19.83;53.63;100300.61;123660;1098;104216;-76
2022/07/14 00:36:45;;;;;;;5.13;1.73;;;;;;;19.82;53.26;100305.06;123581;1099;104239;-75
2022/07/14 00:39:16;;;;;;;7.70;1.80;;;;;;;19.82;53.60;100302.41;123624;1099;104259;-75
2022/07/14 00:41:48;;;;;;;4.20;2.07;;;;;;;19.81;52.92;100297.08;123623;1099;104306;-76
2022/07/14 00:44:19;;;;;;;6.13;2.00;;;;;;;19.81;53.22;100302.41;123543;1099;104377;-75
2022/07/14 00:46:51;;;;;;;4.75;2.15;;;;;;;19.79;53.27;100294.43;123632;1099;104258;-76
2022/07/14 00:52:19;;;;;;;3.33;2.00;;;;;;;19.75;53.05;100296.16;123497;1102;105709;-75
2022/07/14 00:54:51;;;;;;;5.20;2.23;;;;;;;19.73;52.74;100300.63;123411;1102;104389;-76
2022/07/14 00:57:23;;;;;;;8.20;2.20;;;;;;;19.71;52.96;100299.76;123377;1102;104354;-76
2022/07/14 00:59:56;;;;;;;4.67;2.00;;;;;;;19.69;53.30;100304.19;123386;1102;104271;-76
2022/07/14 01:02:28;;;;;;;5.83;1.90;;;;;;;19.70;53.06;100308.63;123130;1102;104382;-76
2022/07/14 01:04:59;;;;;;;3.27;1.70;;;;;;;19.68;53.41;100307.76;122979;1102;104370;-76
2022/07/14 01:07:31;;;;;;;2.67;1.83;;;;;;;19.65;52.86;100313.09;123027;1102;104357;-76
2022/07/14 01:10:03;;;;;;;4.07;1.90;;;;;;;19.64;53.28;100315.77;123057;1102;104374;-76
2022/07/14 01:12:36;;;;;;;3.37;2.10;;;;;;;19.62;52.79;100318.43;123222;1102;104279;-76
2022/07/14 01:15:09;;;;;;;2.37;1.80;;;;;;;19.59;53.35;100318.44;123291;1102;105324;-76
2022/07/14 01:17:40;;;;;;;4.58;1.90;;;;;;;19.54;53.32;100317.55;123380;1102;104287;-76
2022/07/14 01:20:14;;;;;;;3.30;2.03;;;;;;;19.51;53.39;100313.15;122968;1102;104437;-76
2022/07/14 01:22:46;;;;;;;2.85;1.90;;;;;;;19.48;53.26;100320.27;123092;1102;104372;-76
2022/07/14 01:25:20;;;;;;;3.13;1.87;;;;;;;19.43;53.19;100317.63;122977;1102;104377;-76
2022/07/14 01:27:52;;;;;;;3.90;2.13;;;;;;;19.39;53.18;100330.03;123058;1105;104379;-76
2022/07/14 01:30:24;;;;;;;7.50;1.90;;;;;;;19.35;53.31;100322.97;122905;1102;104342;-76
2022/07/14 01:32:56;;;;;;;4.27;1.90;;;;;;;19.34;53.38;100333.62;122862;1102;104348;-76
2022/07/14 01:35:27;;;;;;;2.90;1.83;;;;;;;19.31;53.44;100333.62;123049;1102;104268;-77
2022/07/14 01:37:59;;;;;;;3.87;2.20;;;;;;;19.27;53.54;100331.85;123298;1102;104309;-77
2022/07/14 01:40:30;;;;;;;3.20;2.07;;;;;;;19.21;53.26;100332.73;123101;1106;104466;-77
2022/07/14 01:43:02;;;;;;;3.20;2.27;;;;;;;19.16;53.82;100335.41;123430;1102;104239;-77
2022/07/14 01:45:34;;;;;;;5.07;2.10;;;;;;;19.11;53.98;100333.67;123381;1102;104242;-77
2022/07/14 01:48:07;;;;;;;2.90;2.00;;;;;;;19.06;53.95;100348.72;123207;1103;104265;-76
2022/07/14 01:50:38;;;;;;;3.47;2.17;;;;;;;19.00;54.38;100344.32;123491;1102;104306;-76
2022/07/14 01:53:10;;;;;;;5.57;2.33;;;;;;;18.93;54.30;100351.43;123110;1102;104418;-76
2022/07/14 01:55:43;;;;;;;4.53;2.00;;;;;;;18.88;54.76;100349.66;123186;1102;104672;-76
2022/07/14 01:58:13;;;;;;;;;;;;;;;18.82;54.10;100355.81;123118;1102;104354;-76
2022/07/14 02:01:38;;;;;;;3.93;2.00;;;;;;;18.79;54.50;100353.16;123130;1102;104237;-76
2022/07/14 02:03:36;;;;;;;3.07;2.00;;;;;;;18.74;54.93;100357.59;123033;1105;104357;-76
2022/07/14 02:06:09;;;;;;;3.97;2.17;;;;;;;18.72;55.20;100354.06;123019;1106;104437;-76
2022/07/14 02:08:41;;;;;;;6.20;2.60;;;;;;;18.67;54.98;100354.06;123056;1102;104232;-76
2022/07/14 02:14:03;;;;;;;5.63;2.47;;;;;;;18.63;55.50;100354.94;123226;1102;105634;-76
2022/07/14 02:16:35;;;;;;;6.63;2.50;;;;;;;18.60;55.34;100358.47;123308;1102;104300;-76
2022/07/14 02:19:07;;;;;;;4.67;2.23;;;;;;;18.58;55.67;100346.95;123309;1102;104692;-75
2022/07/14 02:21:42;;;;;;;3.30;2.27;;;;;;;18.57;55.99;100361.12;123190;1102;104304;-76
2022/07/14 02:24:13;;;;;;;3.33;2.50;;;;;;;18.57;55.99;100365.55;123201;1102;104264;-76
2022/07/14 02:26:45;;;;;;;2.80;2.10;;;;;;;18.55;56.24;100372.66;123204;1103;104360;-75
2022/07/14 02:29:17;;;;;;;3.00;2.17;;;;;;;18.53;56.35;100358.45;123002;1105;104370;-76
2022/07/14 02:31:49;;;;;;;3.43;2.20;;;;;;;18.50;56.46;100373.52;123289;1102;104457;-76
2022/07/14 02:34:20;;;;;;;8.07;2.70;;;;;;;18.49;56.69;100374.39;123057;1102;104323;-76
2022/07/14 02:36:52;;;;;;;2.33;2.13;;;;;;;18.47;56.50;100381.48;123037;1102;104277;-76
2022/07/14 02:39:23;;;;;;;6.93;2.30;;;;;;;18.46;56.89;100379.70;123216;1103;104242;-76
2022/07/14 02:41:54;;;;;;;4.13;2.10;;;;;;;18.47;57.07;100392.11;123183;1102;104353;-76
2022/07/14 02:44:26;;;;;;;3.60;2.03;;;;;;;18.47;57.16;100394.77;123552;1102;104255;-75
2022/07/14 02:46:58;;;;;;;4.63;2.30;;;;;;;18.48;57.04;100392.98;123343;1102;104272;-76
2022/07/14 02:49:30;;;;;;;4.93;2.60;;;;;;;18.50;57.21;100381.49;123379;1102;104293;-76
2022/07/14 02:52:02;;;;;;;5.30;2.50;;;;;;;18.53;57.44;100391.25;123559;1102;104268;-75
2022/07/14 02:54:33;;;;;;;4.30;2.40;;;;;;;18.56;57.67;100379.72;123196;1102;104315;-76
2022/07/14 02:57:06;;;;;;;5.13;2.30;;;;;;;18.59;57.57;100385.03;122981;1105;104332;-76
2022/07/14 02:59:41;;;;;;;7.10;2.70;;;;;;;18.61;57.66;100385.94;123299;1102;104267;-76
2022/07/14 03:02:12;;;;;;;3.43;2.47;;;;;;;18.63;57.83;100393.02;123020;1105;104339;-76
2022/07/14 03:04:44;;;;;;;4.80;2.25;;;;;;;18.66;57.86;100395.67;123206;1102;104286;-76
2022/07/14 03:07:16;;;;;;;2.80;2.20;;;;;;;18.68;58.04;100396.58;123025;1102;104300;-76
2022/07/14 03:09:47;;;;;;;4.13;2.43;;;;;;;18.69;57.97;100390.36;123237;1102;104418;-77
2022/07/14 03:12:19;;;;;;;4.03;2.10;;;;;;;18.73;58.51;100393.02;123384;1102;104300;-76
2022/07/14 03:14:51;;;;;;;5.57;2.43;;;;;;;18.76;58.42;100393.02;122866;1102;104383;-76
2022/07/14 03:17:24;;;;;;;4.90;2.43;;;;;;;18.78;58.46;100396.59;122899;1102;104245;-76
2022/07/14 03:19:56;;;;;;;5.33;2.33;;;;;;;18.78;58.45;100396.59;122876;1103;104351;-76
2022/07/14 03:22:29;;;;;;;4.43;2.27;;;;;;;18.77;58.41;100394.80;122838;1102;104357;-75
2022/07/14 03:25:01;;;;;;;4.77;2.27;;;;;;;18.77;58.55;100401.00;122917;1105;104374;-75
2022/07/14 03:27:35;;;;;;;7.70;2.50;;;;;;;18.77;58.61;100410.75;122850;1102;104294;-76
2022/07/14 03:30:09;;;;;;;4.00;2.33;;;;;;;18.76;58.61;100408.97;123307;1102;104254;-75
2022/07/14 03:32:41;;;;;;;5.07;2.50;;;;;;;18.75;59.14;100397.46;122884;1102;104423;-76
2022/07/14 03:35:13;;;;;;;4.67;2.80;;;;;;;18.74;59.04;100398.34;123027;1102;104386;-76
2022/07/14 03:37:45;;;;;;;5.30;2.33;;;;;;;18.76;59.08;100404.56;122867;1102;104254;-75
2022/07/14 03:40:16;;;;;;;5.90;2.63;;;;;;;18.78;59.41;100415.20;122766;1105;104303;-76
2022/07/14 03:42:48;;;;;;;4.60;2.63;;;;;;;18.79;59.49;100419.61;122958;1102;104357;-76
2022/07/14 03:45:20;;;;;;;4.03;2.60;;;;;;;18.82;59.42;100415.20;123115;1102;104296;-76
2022/07/14 03:47:51;;;;;;;7.63;2.97;;;;;;;18.84;59.47;100412.55;122887;1102;104402;-76
2022/07/14 03:50:23;;;;;;;5.83;2.60;;;;;;;18.84;59.49;100408.13;123287;1102;104319;-76
2022/07/14 03:52:55;;;;;;;4.90;2.70;;;;;;;18.86;59.97;100405.48;123129;1102;104310;-75
2022/07/14 03:55:27;;;;;;;4.20;2.83;;;;;;;18.87;60.14;100407.27;123238;1102;104339;-75
2022/07/14 03:58:01;;;;;;;4.23;2.60;;;;;;;18.88;59.86;100394.84;123254;1100;104408;-75
2022/07/14 04:00:35;;;;;;;8.07;2.80;;;;;;;18.92;60.24;100394.84;123365;1100;104326;-74
2022/07/14 04:03:06;;;;;;;5.73;2.67;;;;;;;18.97;59.92;100400.16;123353;1102;104332;-74
2022/07/14 04:05:38;;;;;;;6.03;2.93;;;;;;;19.01;60.09;100400.16;123325;1102;104351;-74
2022/07/14 04:08:13;;;;;;;9.83;2.67;;;;;;;19.03;60.42;100401.03;123395;1102;104262;-75
2022/07/14 04:10:51;;;;;;;6.17;2.67;;;;;;;19.08;60.23;100406.35;123401;1102;104505;-74
2022/07/14 04:13:23;;;;;;;11.93;3.10;;;;;;;19.14;60.37;100406.34;123401;1102;104239;-76
2022/07/14 04:15:54;;;;;;;13.50;3.90;;;;;;;19.19;60.13;100414.32;123263;1101;104335;-76
2022/07/14 04:18:26;;;;;;;27.03;4.80;;;;;;;19.25;60.18;100424.08;123183;1102;104243;-76
2022/07/14 04:20:58;;;;;;;28.40;4.40;;;;;;;19.32;60.58;100423.16;123234;1102;104261;-75
2022/07/14 04:23:31;;;;;;;11.30;3.00;;;;;;;19.37;60.15;100422.28;123259;1102;104265;-76
2022/07/14 04:26:03;;;;;;;24.87;4.23;;;;;;;19.43;60.25;100424.06;123179;1102;104505;-76
2022/07/14 04:28:35;;;;;;;14.80;3.07;;;;;;;19.48;60.33;100429.38;123267;1102;104325;-76
2022/07/14 04:31:08;;;;;;;9.87;2.83;;;;;;;19.53;60.40;100431.11;123178;1102;104409;-76
2022/07/14 04:33:41;;;;;;;9.10;3.33;;;;;;;19.59;59.36;100427.56;123252;1102;104476;-75
2022/07/14 04:36:13;;;;;;;10.10;2.77;;;;;;;19.66;60.02;100434.63;123182;1102;104832;-75
2022/07/14 04:38:45;;;;;;;9.03;2.60;;;;;;;19.71;59.89;100435.52;123223;1102;104383;-76
2022/07/14 04:41:17;;;;;;;5.20;2.60;;;;;;;19.78;59.58;100438.20;123134;1102;104370;-76
2022/07/14 04:43:50;;;;;;;9.83;2.37;;;;;;;19.85;59.83;100445.25;123169;1102;104302;-75
2022/07/14 04:46:23;;;;;;;11.50;3.00;;;;;;;19.91;59.27;100443.48;123423;1102;104469;-75
2022/07/14 04:52:05;;;;;;;6.60;2.60;;;;;;;20.07;59.34;100446.96;123147;1102;104456;-75
2022/07/14 04:54:54;;;;;;;8.13;2.93;;;;;;;20.15;59.06;100441.59;123426;1102;104233;-76
2022/07/14 04:57:45;;;;;;;10.43;2.50;;;;;;;20.24;58.81;100449.55;123494;1102;104335;-75
2022/07/14 05:00:20;;;;;;;7.35;2.50;;;;;;;20.34;58.08;100446.84;123613;1102;104274;-75
2022/07/14 05:02:52;;;;;;;5.60;2.60;;;;;;;20.41;58.22;100451.22;123397;1102;104434;-75
2022/07/14 05:05:23;;;;;;;4.40;2.13;;;;;;;20.50;57.69;100453.84;123521;1102;104435;-75
2022/07/14 05:07:55;;;;;;;5.30;2.30;;;;;;;20.58;57.63;100457.33;123571;1102;104514;-75
2022/07/14 05:10:32;;;;;;;7.50;2.50;;;;;;;20.67;57.46;100456.44;123623;1102;104349;-75
2022/07/14 05:13:03;;;;;;;3.30;2.00;;;;;;;20.76;57.62;100466.17;123769;1102;104425;-75
2022/07/14 05:15:35;;;;;;;7.50;2.77;;;;;;;20.82;57.52;100458.13;123804;1102;104222;-75
2022/07/14 05:18:09;;;;;;;8.15;2.00;;;;;;;20.89;57.33;100462.50;125749;1102;101949;-74
2022/07/14 05:20:43;;;;;;;7.37;2.37;;;;;;;20.97;56.32;100463.34;123725;1102;104647;-74
2022/07/14 05:23:15;;;;;;;15.85;3.22;;;;;;;21.05;56.62;100457.95;124140;1103;104303;-76
2022/07/14 05:25:50;;;;;;;13.83;2.87;;;;;;;21.11;55.70;100452.53;123922;1102;104377;-76
2022/07/14 05:28:22;;;;;;;5.47;2.27;;;;;;;21.19;56.36;100456.05;123980;1102;104168;-75
2022/07/14 05:31:00;;;;;;;5.87;2.23;;;;;;;21.27;56.00;100458.65;123842;1102;104163;-75
2022/07/14 05:33:52;;;;;;;6.63;2.47;;;;;;;21.37;55.04;100456.77;123893;1102;104418;-76
2022/07/14 05:36:25;;;;;;;9.87;2.90;;;;;;;21.44;54.24;100465.59;123973;1103;104424;-77
2022/07/14 05:38:57;;;;;;;5.47;2.20;;;;;;;21.49;54.21;100462.03;124170;1103;104204;-78
2022/07/14 05:41:33;;;;;;;4.77;2.20;;;;;;;21.59;54.26;100469.95;123970;1102;104319;-76
2022/07/14 05:44:08;;;;;;;8.77;3.03;;;;;;;21.65;53.77;100461.88;124213;1102;104198;-77
2022/07/14 05:46:45;;;;;;;36.97;4.60;;;;;;;21.72;54.03;100467.13;124340;1102;102404;-77
2022/07/14 05:49:17;;;;;;;17.93;2.90;;;;;;;21.79;51.96;100470.61;124413;1102;110528;-77
2022/07/14 05:51:52;;;;;;;14.53;2.63;;;;;;;21.88;52.67;100472.31;124353;1105;103326;-76
2022/07/14 05:54:25;;;;;;;10.03;2.60;;;;;;;21.95;52.93;100479.33;124591;1105;103780;-75
2022/07/14 05:56:57;;;;;;;28.20;5.67;;;;;;;22.03;52.35;100488.16;124323;1105;104415;-76
2022/07/14 05:59:30;;;;;;;25.80;4.22;;;;;;;22.09;51.13;100476.50;123895;1105;103296;-77
2022/07/14 06:02:05;;;;;;;33.53;4.23;;;;;;;22.15;51.23;100475.55;124109;1105;103381;-77
2022/07/14 06:04:38;;;;;;;23.83;3.80;;;;;;;22.21;51.75;100473.67;124418;1106;102901;-78
2022/07/14 06:07:41;;;;;;;;;;;;;;;;;;;;;
2022/07/14 06:10:28;;;;;;;3.23;2.20;;;;;;;22.38;50.96;100468.14;123860;1106;107646;-76
2022/07/14 06:13:07;;;;;;;6.80;2.30;;;;;;;22.42;50.20;100466.30;123862;1106;103469;-76
2022/07/14 06:15:40;;;;;;;7.83;2.00;;;;;;;22.48;50.26;100471.57;123787;1105;103714;-76
2022/07/14 06:18:14;;;;;;;2.92;2.50;;;;;;;22.56;50.28;100466.11;123879;1106;102733;-75
2022/07/14 06:20:55;;;;;;;5.07;2.67;;;;;;;22.63;50.48;100467.81;125860;1105;103372;-77
2022/07/14 06:23:37;;;;;;;3.70;2.73;;;;;;;22.71;50.63;100465.02;125734;1105;103309;-78
2022/07/14 06:26:14;;;;;;;5.00;2.33;;;;;;;22.75;50.67;100467.63;125349;1105;102689;-75
2022/07/14 06:28:56;;;;;;;4.47;2.37;;;;;;;22.84;50.84;100473.73;125036;1105;104309;-78
2022/07/14 06:31:33;;;;;;;3.93;2.40;;;;;;;22.94;50.08;100478.05;124324;1103;103660;-77
2022/07/14 06:34:14;;;;;;;5.03;2.97;;;;;;;23.03;50.49;100474.33;124105;1105;104490;-77
2022/07/14 06:37:17;;;;;;;4.93;2.80;;;;;;;23.13;50.64;100481.34;124132;1101;104358;-77
2022/07/14 06:39:51;;;;;;;6.47;2.90;;;;;;;23.20;50.39;100469.60;124495;1102;104306;-76
2022/07/14 06:42:25;;;;;;;6.20;2.50;;;;;;;23.27;50.98;100463.25;124189;1103;104381;-77
2022/07/14 06:45:17;;;;;;;8.13;2.63;;;;;;;23.33;50.24;100468.49;124362;1105;103401;-77
2022/07/14 06:47:52;;;;;;;6.53;2.80;;;;;;;23.45;50.88;100470.09;124272;1105;103667;-77
2022/07/14 06:50:36;;;;;;;7.00;3.27;;;;;;;23.55;51.31;100462.76;124377;1103;103586;-77
2022/07/14 06:53:14;;;;;;;4.10;3.03;;;;;;;23.65;51.13;100466.14;124295;1105;104428;-78
2022/07/14 06:56:05;;;;;;;6.77;3.30;;;;;;;23.75;50.88;100462.39;124590;1105;102715;-77
2022/07/14 06:58:39;;;;;;;8.90;3.80;;;;;;;23.85;51.01;100460.44;125262;1102;102719;-78
2022/07/14 07:01:30;;;;;;;4.13;3.00;;;;;;;23.98;51.10;100469.10;125232;1102;118534;-80
2022/07/14 07:04:09;;;;;;;5.50;3.30;;;;;;;24.10;50.98;100465.30;125269;1102;104396;-78
2022/07/14 07:06:47;;;;;;;5.37;3.00;;;;;;;24.23;50.82;100481.09;125361;1102;104137;-78
2022/07/14 07:09:22;;;;;;;11.00;3.60;;;;;;;24.33;50.58;100476.41;125287;1102;104069;-77
2022/07/14 07:11:58;;;;;;;5.33;3.20;;;;;;;24.48;50.44;100480.57;125524;1102;104201;-79
2022/07/14 07:14:35;;;;;;;6.80;3.70;;;;;;;24.63;50.30;100479.36;124647;1103;104287;-77
2022/07/14 07:17:07;;;;;;;8.00;3.87;;;;;;;24.80;49.14;100481.66;124689;1102;104156;-78
2022/07/14 07:19:40;;;;;;;14.40;5.57;;;;;;;24.94;49.50;100473.28;125657;1099;102606;-78
2022/07/14 07:22:16;;;;;;;9.17;4.27;;;;;;;25.09;49.11;100472.91;125731;1099;102931;-77
2022/07/14 07:24:50;;;;;;;11.20;4.15;;;;;;;25.24;49.50;100468.06;125678;1099;103665;-77
2022/07/14 07:27:27;;;;;;;5.83;3.80;;;;;;;25.43;48.49;100469.39;125593;1102;103230;-78
2022/07/14 07:30:09;;;;;;;7.03;3.80;;;;;;;25.63;47.47;100479.62;125571;1099;104124;-78
2022/07/14 07:32:41;;;;;;;8.83;3.60;;;;;;;25.76;47.35;100466.72;124745;1099;104163;-76
2022/07/14 07:35:33;;;;;;;9.57;4.17;;;;;;;25.93;47.49;100459.97;124630;1099;104299;-78
2022/07/14 07:38:06;;;;;;;6.57;3.57;;;;;;;26.08;47.17;100456.00;124633;1102;104273;-78
2022/07/14 07:40:38;;;;;;;8.90;3.40;;;;;;;26.19;46.84;100457.45;124565;1102;103646;-75
2022/07/14 07:43:11;;;;;;;9.43;3.77;;;;;;;26.36;46.18;100451.54;124569;1102;104354;-78
2022/07/14 07:46:02;;;;;;;6.73;3.73;;;;;;;26.46;45.52;100451.26;124504;1102;104153;-78
2022/07/14 07:48:54;;;;;;;10.00;5.60;;;;;;;26.59;45.08;100459.85;125131;1105;104284;-78
2022/07/14 07:51:33;;;;;;;21.70;7.50;;;;;;;26.71;44.91;100449.61;125483;1102;102557;-79
2022/07/14 07:54:19;;;;;;;11.63;3.60;;;;;;;26.82;44.50;100446.57;125467;1102;103268;-80
2022/07/14 07:56:54;;;;;;;10.20;3.73;;;;;;;26.91;43.99;100461.52;125261;1105;103375;-80
2022/07/14 07:59:41;;;;;;;6.23;3.53;;;;;;;26.99;43.09;100454.09;125464;1102;104306;-78
2022/07/14 08:05:08;;;;;;;5.03;3.30;;;;;;;27.29;43.37;100434.27;125519;1102;103263;-78
2022/07/14 08:07:40;;;;;;;5.70;3.40;;;;;;;27.40;42.97;100437.48;125364;1102;103021;-77
2022/07/14 08:10:14;;;;;;;8.95;3.25;;;;;;;27.50;42.85;100433.51;125324;1099;103029;-77
2022/07/14 08:12:55;;;;;;;10.06;4.04;;;;;;;27.65;43.15;100425.83;121782;1102;10001393;-77
2022/07/14 08:15:38;;;;;;;7.67;3.50;;;;;;;27.77;41.91;100439.73;124772;1099;104165;-77
2022/07/14 08:18:13;;;;;;;5.10;3.50;;;;;;;27.90;42.12;100431.19;125547;1099;104136;-78
2022/07/14 08:20:56;;;;;;;12.23;3.80;;;;;;;28.03;41.94;100432.50;125573;1099;104323;-77
2022/07/14 08:23:34;;;;;;;5.17;3.70;;;;;;;28.01;41.11;100436.22;125561;1099;104149;-77
2022/07/14 08:26:17;;;;;;;10.63;3.70;;;;;;;28.06;41.28;100426.99;125365;1099;104179;-78
2022/07/14 08:29:00;;;;;;;8.40;3.65;;;;;;;28.14;41.30;100414.12;124631;1099;102642;-77
2022/07/14 08:31:39;;;;;;;7.10;3.43;;;;;;;28.23;40.78;100414.69;124908;1098;104021;-77
2022/07/14 08:34:31;;;;;;;6.23;3.43;;;;;;;28.36;40.96;100418.67;125496;1102;102888;-77
2022/07/14 08:37:16;;;;;;;9.20;3.37;;;;;;;28.47;39.36;100410.13;125558;1099;102753;-79
2022/07/14 08:40:15;;;;;;;7.13;3.20;;;;;;;28.56;39.31;100415.15;125612;1099;104219;-79
2022/07/14 08:46:02;;;;;;;10.80;3.50;;;;;;;28.82;38.59;100405.15;125586;1099;104325;-79
2022/07/14 08:48:53;;;;;;;8.90;3.20;;;;;;;28.94;38.16;100403.77;125538;1102;104182;-76
2022/07/14 08:52:07;;;;;;;6.57;3.23;;;;;;;28.95;38.38;100409.11;125246;1098;103207;-77
2022/07/14 08:54:48;;;;;;;6.50;2.90;;;;;;;28.92;37.16;100416.44;125936;1099;103357;-79
2022/07/14 08:57:28;;;;;;;4.97;3.20;;;;;;;28.91;37.91;100401.20;125915;1101;102975;-78
2022/07/14 09:00:02;;;;;;;5.20;3.00;;;;;;;28.97;36.63;100411.74;125833;1102;102467;-79
2022/07/14 09:02:34;;;;;;;9.27;3.03;;;;;;;29.03;36.97;100408.75;125955;1099;103617;-79
2022/07/14 09:05:13;;;;;;;5.27;3.03;;;;;;;29.08;36.88;100403.15;126029;1099;101881;-79
2022/07/14 09:07:57;;;;;;;6.17;3.10;;;;;;;29.14;36.88;100394.78;125958;1102;103191;-79
2022/07/14 09:10:33;;;;;;;5.57;2.90;;;;;;;29.25;36.31;100402.45;125891;1099;103495;-77
2022/07/14 09:13:22;;;;;;;7.73;3.30;;;;;;;29.24;36.30;100396.19;126166;1099;101869;-82
2022/07/14 09:16:19;;;;;;;6.93;3.20;;;;;;;29.20;36.40;100392.75;126235;1099;103317;-77
2022/07/14 09:19:14;;;;;;;6.83;3.13;;;;;;;29.20;36.71;100376.54;125760;1099;102753;-79
2022/07/14 09:21:54;;;;;;;4.73;3.10;;;;;;;29.27;36.17;100385.25;125168;1099;102994;-76
2022/07/14 09:24:36;;;;;;;5.10;2.60;;;;;;;29.24;36.15;100379.97;125176;1099;108715;-77
2022/07/14 09:27:20;;;;;;;3.85;2.70;;;;;;;29.24;36.09;100371.87;124921;1099;103480;-76
2022/07/14 09:29:58;;;;;;;4.43;3.00;;;;;;;29.26;36.52;100378.08;125347;1099;104246;-76
2022/07/14 09:32:45;;;;;;;5.93;3.20;;;;;;;29.32;35.24;100391.31;125068;1099;104238;-77
2022/07/14 09:35:23;;;;;;;10.00;3.00;;;;;;;29.33;35.87;100379.57;124978;1099;104693;-77
2022/07/14 09:38:09;;;;;;;4.63;2.70;;;;;;;29.30;34.85;100366.19;125162;1099;102215;-76
2022/07/14 09:40:42;;;;;;;7.03;2.50;;;;;;;29.35;35.16;100371.39;125209;1099;103022;-76
2022/07/14 09:43:19;;;;;;;5.97;2.77;;;;;;;29.39;35.44;100373.89;124991;1099;104210;-77
2022/07/14 09:46:05;;;;;;;5.03;2.70;;;;;;;29.45;35.25;100375.45;124972;1099;103080;-78
2022/07/14 09:48:43;;;;;;;5.40;2.80;;;;;;;29.45;35.33;100363.75;126100;1098;104172;-76
2022/07/14 09:51:19;;;;;;;5.40;2.93;;;;;;;29.51;34.53;100368.87;126189;1099;103664;-77
2022/07/14 09:53:52;;;;;;;4.53;3.07;;;;;;;29.54;34.55;100371.44;124940;1099;103695;-78
2022/07/14 09:56:29;;;;;;;5.43;3.00;;;;;;;29.59;34.36;100372.09;125110;1099;104431;-80
2022/07/14 09:59:05;;;;;;;4.63;3.00;;;;;;;29.58;34.56;100373.94;124840;1099;104835;-78
2022/07/14 10:01:39;;;;;;;5.53;2.93;;;;;;;29.53;34.41;100370.57;124802;1099;104316;-77
2022/07/14 10:04:20;;;;;;;5.57;3.23;;;;;;;29.53;34.59;100367.88;124810;1099;102884;-77
2022/07/14 10:06:59;;;;;;;7.80;3.33;;;;;;;29.65;34.81;100358.30;125936;1099;104155;-78
2022/07/14 10:09:38;;;;;;;5.17;3.03;;;;;;;29.76;34.61;100356.00;125047;1099;103528;-77
2022/07/14 10:12:19;;;;;;;5.07;3.17;;;;;;;29.76;33.92;100361.41;124687;1099;104514;-76
2022/07/14 10:14:52;;;;;;;5.03;3.30;;;;;;;29.83;33.82;100372.84;125577;1102;103632;-76
2022/07/14 10:17:27;;;;;;;7.30;3.10;;;;;;;29.82;33.51;100371.08;124515;1102;102714;-76
2022/07/14 10:20:03;;;;;;;7.73;3.20;;;;;;;29.85;33.62;100370.94;124602;1102;103025;-78
2022/07/14 10:22:36;;;;;;;3.57;2.90;;;;;;;29.76;33.44;100356.00;125629;1102;102306;-77
2022/07/14 10:25:10;;;;;;;8.10;3.60;;;;;;;29.87;33.35;100363.65;124723;1102;104283;-77
2022/07/14 10:27:45;;;;;;;7.42;3.40;;;;;;;29.99;33.14;100359.47;116094;1102;10000880;-77
2022/07/14 10:30:18;;;;;;;10.70;3.50;;;;;;;30.18;32.81;100366.70;124715;1102;103366;-77
2022/07/14 10:33:01;;;;;;;5.67;3.50;;;;;;;30.35;32.80;100369.47;124680;1102;103465;-78
2022/07/14 10:36:11;;;;;;;4.85;3.35;;;;;;;30.57;32.44;100373.86;124528;1099;104425;-78
2022/07/14 10:39:09;;;;;;;7.70;3.37;;;;;;;30.51;32.46;100379.58;124516;1099;104433;-78
2022/07/14 10:41:56;;;;;;;5.00;3.27;;;;;;;30.33;31.81;100371.38;124750;1099;105143;-78
2022/07/14 10:44:40;;;;;;;7.90;3.30;;;;;;;30.30;31.82;100366.12;125528;1099;102209;-80
2022/07/14 10:47:16;;;;;;;7.97;3.50;;;;;;;30.20;31.81;100375.62;124820;1099;103746;-78
2022/07/14 10:50:26;;;;;;;11.17;3.70;;;;;;;30.23;31.98;100372.77;124982;1099;104339;-78
2022/07/14 10:53:04;;;;;;;7.67;3.40;;;;;;;30.31;32.09;100367.88;115772;1102;10001186;-78
2022/07/14 10:55:40;;;;;;;6.77;3.43;;;;;;;30.32;31.95;100372.32;124637;1102;104344;-80
2022/07/14 10:58:32;;;;;;;6.07;3.50;;;;;;;30.37;31.55;100367.58;124902;1099;104357;-80
2022/07/14 11:01:10;;;;;;;7.90;3.60;;;;;;;30.51;31.73;100364.23;124911;1099;104240;-78
2022/07/14 11:03:54;;;;;;;5.70;3.40;;;;;;;30.66;31.80;100370.69;125042;1099;104168;-79
2022/07/14 11:06:38;;;;;;;6.30;3.50;;;;;;;30.70;31.47;100365.98;126007;1099;110978;-80
2022/07/14 11:09:51;;;;;;;9.50;3.70;;;;;;;30.83;31.36;100376.13;126022;1102;102477;-80
2022/07/14 11:12:30;;;;;;;7.77;3.50;;;;;;;30.79;30.45;100371.84;126054;1099;102755;-78
2022/07/14 11:15:38;;;;;;;5.07;3.30;;;;;;;30.71;30.44;100371.33;125949;1099;102408;-81
2022/07/14 11:18:45;;;;;;;4.87;3.40;;;;;;;30.68;30.51;100366.06;125964;1099;103114;-79
2022/07/14 11:21:23;;;;;;;3.67;2.90;;;;;;;30.67;30.42;100358.02;125897;1099;103022;-79
2022/07/14 11:24:05;;;;;;;6.47;3.40;;;;;;;30.69;30.66;100361.55;126105;1099;102661;-79
2022/07/14 11:26:41;;;;;;;4.83;3.27;;;;;;;30.68;30.49;100357.08;126698;1098;103978;-78
2022/07/14 11:29:32;;;;;;;8.80;3.53;;;;;;;30.72;30.66;100355.98;126634;1099;102803;-78
2022/07/14 11:32:35;;;;;;;4.60;3.20;;;;;;;30.71;30.53;100356.92;126490;1099;102894;-80
2022/07/14 11:41:39;;;;;;;8.03;3.60;;;;;;;30.54;30.78;100341.52;126651;1097;104015;-77
2022/07/14 11:47:57;;;;;;;7.10;3.30;;;;;;;30.66;30.63;100362.56;125235;1099;103070;-76
2022/07/14 11:50:39;;;;;;;7.40;3.50;;;;;;;30.75;30.77;100350.41;124599;1099;102673;-77
2022/07/14 11:53:16;;;;;;;6.07;3.70;;;;;;;30.71;30.36;100355.08;124764;1099;104275;-77
2022/07/14 11:55:58;;;;;;;6.37;3.30;;;;;;;30.63;30.33;100357.31;125376;1099;104143;-77
2022/07/14 11:58:35;;;;;;;8.30;3.67;;;;;;;30.71;30.53;100355.08;125435;1099;103402;-80
2022/07/14 12:01:49;;;;;;;5.83;3.40;;;;;;;30.76;29.96;100352.14;125535;1099;104112;-80
2022/07/14 12:04:29;;;;;;;6.93;4.00;;;;;;;30.83;29.75;100354.45;125434;1099;104342;-79
2022/07/14 12:07:03;;;;;;;5.90;3.60;;;;;;;30.86;29.69;100352.57;125455;1102;103284;-80
2022/07/14 12:10:10;;;;;;;8.10;3.83;;;;;;;30.92;29.76;100338.71;125563;1102;103075;-77
2022/07/14 12:12:47;;;;;;;5.30;3.60;;;;;;;30.91;29.56;100355.91;124441;1102;103500;-77
2022/07/14 12:15:41;;;;;;;4.63;3.30;;;;;;;30.94;29.36;100340.36;125441;1102;104213;-78
2022/07/14 12:18:37;;;;;;;8.35;3.83;;;;;;;30.78;29.49;100337.58;124684;1099;110602;-78
2022/07/14 12:21:10;;;;;;;6.20;3.50;;;;;;;30.89;29.77;100344.28;125485;1102;103332;-77